Time;durP1;ratioP1;P1;durP2;ratioP2;P2;SDS_P1;SDS_P2;PMS_P1;PMS_P2;Temp;Humidity;BMP_temperature;BMP_pressure;BME280_temperature;BME280_humidity;BME280_pressure;Samples;Min_cycle;Max_cycle;Signal;HPM_P1;HPM_P2
2022/11/18 00:00:23;;;;;;;33.05;22.02;;;7.20;99.90;;;;;;5061794;28;20044;-55
2022/11/18 00:02:49;;;;;;;50.60;25.98;;;7.30;99.90;;;;;;5067583;22;20049;-55
2022/11/18 00:05:15;;;;;;;30.25;20.52;;;7.30;99.90;;;;;;5045499;28;20051;-54
2022/11/18 00:07:41;;;;;;;49.97;26.00;;;7.30;99.90;;;;;;5044008;28;20037;-53
2022/11/18 00:10:06;;;;;;;37.05;19.90;;;7.30;99.90;;;;;;5043756;28;20052;-51
2022/11/18 00:15:16;;;;;;;42.38;25.13;;;7.40;99.90;;;;;;5048591;28;20449;-52
2022/11/18 00:17:42;;;;;;;41.22;24.20;;;7.30;99.90;;;;;;5049552;28;20102;-52
2022/11/18 00:20:08;;;;;;;53.47;28.20;;;7.30;99.90;;;;;;5044977;28;20494;-53
2022/11/18 00:22:33;;;;;;;45.50;24.20;;;7.40;99.90;;;;;;5044087;28;20124;-52
2022/11/18 00:24:59;;;;;;;53.72;28.50;;;7.40;99.90;;;;;;5043578;28;20494;-55
2022/11/18 00:27:24;;;;;;;53.13;28.52;;;7.50;99.90;;;;;;5043708;28;20045;-51
2022/11/18 00:29:50;;;;;;;52.83;28.73;;;7.40;99.90;;;;;;5043665;28;20039;-52
2022/11/18 00:32:15;;;;;;;45.42;27.88;;;7.50;99.90;;;;;;5045761;28;20037;-51
2022/11/18 00:34:42;;;;;;;53.05;28.77;;;7.40;99.90;;;;;;5046917;28;20037;-52
2022/11/18 00:37:07;;;;;;;47.40;27.55;;;7.40;99.90;;;;;;5044242;28;20049;-51
2022/11/18 00:39:33;;;;;;;58.65;28.60;;;7.40;99.90;;;;;;5045681;28;20094;-55
2022/11/18 00:44:43;;;;;;;47.38;26.83;;;7.50;99.90;;;;;;5044183;28;20128;-54
2022/11/18 00:47:09;;;;;;;52.97;28.02;;;7.50;99.90;;;;;;5044604;28;20098;-53
2022/11/18 00:49:34;;;;;;;58.08;30.10;;;7.50;99.90;;;;;;5046048;28;20056;-54
2022/11/18 00:52:00;;;;;;;47.92;28.10;;;7.40;99.90;;;;;;5042213;28;20115;-55
2022/11/18 00:54:26;;;;;;;50.38;28.60;;;7.50;99.90;;;;;;5040140;28;20052;-55
2022/11/18 00:56:51;;;;;;;65.65;31.75;;;7.60;99.90;;;;;;5029455;28;20049;-55
2022/11/18 00:59:17;;;;;;;50.20;29.27;;;7.50;99.90;;;;;;5025678;28;20048;-53
2022/11/18 01:01:42;;;;;;;50.85;27.48;;;7.50;99.90;;;;;;5028780;28;20046;-55
2022/11/18 01:04:08;;;;;;;47.63;28.55;;;7.50;99.90;;;;;;5029689;28;20395;-53
2022/11/18 01:06:34;;;;;;;56.38;29.83;;;7.50;99.90;;;;;;5028810;28;20131;-54
2022/11/18 01:08:59;;;;;;;74.93;32.30;;;7.50;99.90;;;;;;5066239;22;20370;-52
2022/11/18 01:14:09;;;;;;;58.80;29.73;;;7.50;99.90;;;;;;5077286;28;20048;-52
2022/11/18 01:16:35;;;;;;;70.00;31.83;;;7.50;99.90;;;;;;5077965;28;20413;-53
2022/11/18 01:19:00;;;;;;;52.40;28.40;;;7.50;99.90;;;;;;5079255;28;20489;-52
2022/11/18 01:21:27;;;;;;;63.95;31.17;;;7.50;99.90;;;;;;5079721;28;20595;-52
2022/11/18 01:23:53;;;;;;;56.20;30.30;;;7.40;99.90;;;;;;5063183;28;20036;-55
2022/11/18 01:26:19;;;;;;;58.38;28.98;;;7.50;99.90;;;;;;5084783;28;20460;-56
2022/11/18 01:28:45;;;;;;;56.35;27.05;;;7.50;99.90;;;;;;5085313;28;20051;-52
2022/11/18 01:31:16;;;;;;;54.60;29.50;;;7.50;99.90;;;;;;5083617;28;20032;-56
2022/11/18 01:33:42;;;;;;;72.13;32.63;;;7.50;99.90;;;;;;5060314;28;20485;-54
2022/11/18 01:36:16;;;;;;;64.95;30.38;;;7.50;99.90;;;;;;5078667;28;20059;-55
2022/11/18 01:38:42;;;;;;;48.00;26.08;;;7.50;99.90;;;;;;5078986;28;20048;-54
2022/11/18 01:41:07;;;;;;;47.63;27.80;;;7.50;99.90;;;;;;5089857;28;20040;-53
2022/11/18 01:44:02;;;;;;;46.80;26.90;;;7.40;99.90;;;;;;4794690;22;20829;-52
2022/11/18 01:46:30;;;;;;;44.25;26.00;;;7.50;99.90;;;;;;5074138;28;20080;-52
2022/11/18 01:49:07;;;;;;;50.00;27.60;;;7.50;99.90;;;;;;5057504;28;20048;-55
2022/11/18 01:51:43;;;;;;;37.80;24.73;;;7.50;99.90;;;;;;5078063;28;20040;-56
2022/11/18 01:54:15;;;;;;;47.53;27.95;;;7.40;99.90;;;;;;5076666;28;20086;-54
2022/11/18 01:56:44;;;;;;;39.90;25.75;;;7.40;99.90;;;;;;5056276;28;20049;-53
2022/11/18 01:59:16;;;;;;;37.58;25.90;;;7.40;99.90;;;;;;5055963;28;20128;-55
2022/11/18 02:01:42;;;;;;;36.67;25.15;;;7.40;99.90;;;;;;5050100;28;20045;-55
2022/11/18 02:04:08;;;;;;;38.03;25.10;;;7.40;99.90;;;;;;5054804;28;20055;-55
2022/11/18 02:06:35;;;;;;;45.35;28.00;;;7.40;99.90;;;;;;5037134;28;20140;-56
2022/11/18 02:09:01;;;;;;;38.65;26.67;;;7.30;99.90;;;;;;5057155;28;20379;-55
2022/11/18 02:14:11;;;;;;;40.42;25.23;;;7.40;99.90;;;;;;5054213;28;20120;-51
2022/11/18 02:16:49;;;;;;;43.60;29.23;;;7.40;99.90;;;;;;5055036;28;20125;-52
2022/11/18 02:19:36;;;;;;;38.28;27.67;;;7.30;99.90;;;;;;5052948;28;20410;-54
2022/11/18 02:22:29;;;;;;;49.80;32.05;;;7.30;99.90;;;;;;5052280;28;20041;-54
2022/11/18 02:25:19;;;;;;;53.40;33.50;;;7.30;99.90;;;;;;5054033;28;20049;-52
2022/11/18 02:27:54;;;;;;;53.17;34.42;;;7.40;99.90;;;;;;5054155;28;20040;-56
2022/11/18 02:30:20;;;;;;;46.40;30.40;;;7.30;99.90;;;;;;5054057;28;20053;-51
2022/11/18 02:32:51;;;;;;;60.17;39.20;;;7.30;99.90;;;;;;5052342;28;20390;-54
2022/11/18 02:35:30;;;;;;;58.20;37.88;;;7.30;99.90;;;;;;5049603;28;20086;-54
2022/11/18 02:38:18;;;;;;;62.78;37.58;;;7.40;99.90;;;;;;5041947;28;20091;-51
2022/11/18 02:40:54;;;;;;;58.17;38.55;;;7.30;99.90;;;;;;5054102;28;20072;-55
2022/11/18 02:43:28;;;;;;;63.75;39.20;;;7.40;99.90;;;;;;5054565;28;20052;-51
2022/11/18 02:46:06;;;;;;;59.95;37.05;;;7.30;99.90;;;;;;5049158;28;20551;-51
2022/11/18 02:48:32;;;;;;;;;;;7.30;99.90;;;;;;5036282;28;20056;-53
2022/11/18 02:51:00;;;;;;;64.78;38.22;;;7.40;99.90;;;;;;5053800;28;19946;-53
2022/11/18 02:53:27;;;;;;;63.13;37.17;;;7.40;99.90;;;;;;5053624;28;20452;-54
2022/11/18 02:55:54;;;;;;;62.40;38.05;;;7.40;99.90;;;;;;5054700;28;20072;-54
2022/11/18 02:58:21;;;;;;;59.70;37.17;;;7.30;99.90;;;;;;5054707;28;20186;-52
2022/11/18 03:00:54;;;;;;;50.63;34.03;;;7.40;99.90;;;;;;5054597;28;20037;-55
2022/11/18 03:03:25;;;;;;;51.67;34.47;;;7.40;99.90;;;;;;5053173;28;20406;-55
2022/11/18 03:06:05;;;;;;;55.88;36.95;;;7.30;99.90;;;;;;5053220;28;20045;-53
2022/11/18 03:08:38;;;;;;;54.45;35.45;;;7.40;99.90;;;;;;5048339;28;20070;-53
2022/11/18 03:11:15;;;;;;;57.80;35.85;;;7.30;99.90;;;;;;5046794;28;20053;-55
2022/11/18 03:13:47;;;;;;;50.88;32.63;;;7.30;99.90;;;;;;5032721;28;20444;-53
2022/11/18 03:16:23;;;;;;;53.90;35.97;;;7.30;99.90;;;;;;5053214;28;20097;-55
2022/11/18 03:19:06;;;;;;;57.50;37.28;;;7.40;99.90;;;;;;5053798;28;20045;-53
2022/11/18 03:21:41;;;;;;;59.33;36.55;;;7.30;99.90;;;;;;5053177;28;20072;-53
2022/11/18 03:24:27;;;;;;;59.42;38.63;;;7.30;99.90;;;;;;5050531;28;20049;-55
2022/11/18 03:27:07;;;;;;;59.25;35.42;;;7.30;99.90;;;;;;5053767;28;20037;-56
2022/11/18 03:32:13;;;;;;;64.22;39.65;;;7.30;99.90;;;;;;4683679;22;20065;-55
2022/11/18 03:34:46;;;;;;;52.70;33.95;;;7.30;99.90;;;;;;5052771;28;20033;-56
2022/11/18 03:37:15;;;;;;;55.60;37.70;;;7.30;99.90;;;;;;5052844;28;20110;-53
2022/11/18 03:39:45;;;;;;;61.75;39.50;;;7.30;99.90;;;;;;5049086;28;20444;-51
2022/11/18 03:42:29;;;;;;;58.28;37.15;;;7.40;99.90;;;;;;5051411;28;20620;-54
2022/11/18 03:45:01;;;;;;;61.58;39.17;;;7.30;99.90;;;;;;5041017;28;20051;-51
2022/11/18 03:47:40;;;;;;;58.88;38.97;;;7.30;99.90;;;;;;5046250;28;20048;-53
2022/11/18 03:50:23;;;;;;;58.40;37.97;;;7.30;99.90;;;;;;5050670;28;20049;-54
2022/11/18 03:52:50;;;;;;;61.55;37.25;;;7.40;99.90;;;;;;5037919;28;20399;-54
2022/11/18 03:55:32;;;;;;;59.40;38.27;;;7.30;99.90;;;;;;5049877;28;20044;-52
2022/11/18 03:58:18;;;;;;;57.28;36.85;;;7.30;99.90;;;;;;5052641;28;20040;-53
2022/11/18 04:00:47;;;;;;;63.83;39.80;;;7.30;99.90;;;;;;5052294;28;20056;-52
2022/11/18 04:03:13;;;;;;;60.63;39.28;;;7.40;99.90;;;;;;5041638;28;20045;-55
2022/11/18 04:05:42;;;;;;;56.67;38.78;;;7.40;99.90;;;;;;5033830;28;20102;-56
2022/11/18 04:08:23;;;;;;;56.28;34.40;;;7.40;99.90;;;;;;5051715;28;20116;-53
2022/11/18 04:10:57;;;;;;;61.30;38.75;;;7.30;99.90;;;;;;5051969;28;20045;-54
2022/11/18 04:13:26;;;;;;;55.88;37.42;;;7.30;99.90;;;;;;5049501;28;20048;-52
2022/11/18 04:15:53;;;;;;;55.17;35.35;;;7.30;99.90;;;;;;5045484;28;20052;-53
2022/11/18 04:18:19;;;;;;;57.35;36.30;;;7.30;99.90;;;;;;5050998;28;20055;-55
2022/11/18 04:20:44;;;;;;;58.72;36.53;;;7.30;99.90;;;;;;5050941;28;20041;-51
2022/11/18 04:23:10;;;;;;;55.53;36.97;;;7.30;99.90;;;;;;5047097;28;20412;-53
2022/11/18 04:25:36;;;;;;;62.17;37.78;;;7.30;99.90;;;;;;5049636;28;20045;-54
2022/11/18 04:28:02;;;;;;;51.63;35.67;;;7.40;99.90;;;;;;5052165;28;20045;-52
2022/11/18 04:30:28;;;;;;;49.25;34.50;;;7.30;99.90;;;;;;5050468;28;20053;-52
2022/11/18 04:32:53;;;;;;;54.55;35.60;;;7.40;99.90;;;;;;5045523;28;20048;-55
2022/11/18 04:35:19;;;;;;;54.13;35.22;;;7.40;99.90;;;;;;5047766;28;20037;-55
2022/11/18 04:37:44;;;;;;;47.30;32.13;;;7.30;99.90;;;;;;5048020;28;20140;-55
2022/11/18 04:40:10;;;;;;;54.42;35.53;;;7.40;99.90;;;;;;5050319;28;20041;-55
2022/11/18 04:42:36;;;;;;;54.58;35.15;;;7.40;99.90;;;;;;5051313;28;20072;-52
2022/11/18 04:45:02;;;;;;;47.97;32.13;;;7.30;99.90;;;;;;5049332;28;20116;-54
2022/11/18 04:47:28;;;;;;;60.92;37.17;;;7.40;99.90;;;;;;5051123;28;20037;-52
2022/11/18 04:49:53;;;;;;;51.15;33.90;;;7.40;99.90;;;;;;5050284;28;20509;-53
2022/11/18 04:52:19;;;;;;;52.17;33.20;;;7.40;99.90;;;;;;5049678;28;20044;-54
2022/11/18 04:54:45;;;;;;;50.67;32.67;;;7.30;99.90;;;;;;5039970;28;20119;-53
2022/11/18 04:57:11;;;;;;;51.90;33.67;;;7.40;99.90;;;;;;5050693;28;20052;-53
2022/11/18 04:59:37;;;;;;;54.50;35.00;;;7.30;99.90;;;;;;5051456;28;20045;-56
2022/11/18 05:02:02;;;;;;;50.63;35.67;;;7.40;99.90;;;;;;5050002;28;20037;-51
2022/11/18 05:04:31;;;;;;;51.55;33.78;;;7.40;99.90;;;;;;5048588;28;20044;-54
2022/11/18 05:06:58;;;;;;;58.78;34.53;;;7.40;99.90;;;;;;5051611;28;20087;-51
2022/11/18 05:09:24;;;;;;;53.47;36.30;;;7.30;99.90;;;;;;5051389;28;20048;-51
2022/11/18 05:14:34;;;;;;;60.05;38.10;;;7.30;99.90;;;;;;5045793;28;20057;-54
2022/11/18 05:17:02;;;;;;;50.88;33.42;;;7.30;99.90;;;;;;5028234;22;20044;-51
2022/11/18 05:19:28;;;;;;;51.55;35.67;;;7.30;99.90;;;;;;5087492;28;20130;-55
2022/11/18 05:21:53;;;;;;;50.42;34.92;;;7.30;99.90;;;;;;5091393;28;20437;-52
2022/11/18 05:24:19;;;;;;;52.85;35.38;;;7.30;99.90;;;;;;5106934;22;20378;-54
2022/11/18 05:26:45;;;;;;;54.50;36.95;;;7.30;99.90;;;;;;5048259;28;20094;-55
2022/11/18 05:29:11;;;;;;;53.22;36.28;;;7.30;99.90;;;;;;5050994;28;20128;-52
2022/11/18 05:31:37;;;;;;;51.55;36.67;;;7.30;99.90;;;;;;5049371;28;20094;-51
2022/11/18 05:34:03;;;;;;;53.25;35.78;;;7.30;99.90;;;;;;5047443;28;20453;-52
2022/11/18 05:36:29;;;;;;;55.70;37.33;;;7.30;99.90;;;;;;5048982;28;20167;-54
2022/11/18 05:38:58;;;;;;;53.35;34.25;;;7.20;99.90;;;;;;5051394;28;20105;-53
2022/11/18 05:44:07;;;;;;;57.95;38.28;;;7.20;99.90;;;;;;5049928;28;20128;-55
2022/11/18 05:46:33;;;;;;;53.53;35.70;;;7.20;99.90;;;;;;5056723;28;20183;-51
2022/11/18 05:48:59;;;;;;;52.30;36.72;;;7.20;99.90;;;;;;5049786;28;20475;-50
2022/11/18 05:51:25;;;;;;;51.92;35.45;;;7.20;99.90;;;;;;5050368;28;20045;-56
2022/11/18 05:53:51;;;;;;;59.67;36.80;;;7.20;99.90;;;;;;5050001;28;20067;-52
2022/11/18 05:56:35;;;;;;;46.72;33.40;;;7.30;99.90;;;;;;5050847;28;20067;-52
2022/11/18 05:59:02;;;;;;;55.25;36.40;;;7.20;99.90;;;;;;5050610;28;20151;-51
2022/11/18 06:01:36;;;;;;;47.42;33.03;;;7.20;99.90;;;;;;5055205;28;20116;-53
2022/11/18 06:04:08;;;;;;;50.63;34.45;;;7.20;99.90;;;;;;5053460;28;20064;-52
2022/11/18 06:06:34;;;;;;;57.28;36.35;;;7.20;99.90;;;;;;5055585;28;20037;-51
2022/11/18 06:09:11;;;;;;;53.38;33.70;;;7.20;99.90;;;;;;5051956;28;20978;-51
2022/11/18 06:11:45;;;;;;;55.97;36.42;;;7.20;99.90;;;;;;5055251;28;20052;-51
2022/11/18 06:14:16;;;;;;;57.50;35.70;;;7.10;99.90;;;;;;5053733;28;20056;-50
2022/11/18 06:16:48;;;;;;;49.17;33.42;;;7.10;99.90;;;;;;5049154;28;20037;-51
2022/11/18 06:19:15;;;;;;;49.83;34.03;;;7.20;99.90;;;;;;5053103;28;20397;-52
2022/11/18 06:21:42;;;;;;;44.60;31.98;;;7.10;99.90;;;;;;5055164;28;20500;-53
2022/11/18 06:24:08;;;;;;;49.75;33.78;;;7.10;99.90;;;;;;5052686;28;20386;-53
2022/11/18 06:26:36;;;;;;;47.25;33.05;;;7.10;99.90;;;;;;5052805;28;20080;-52
2022/11/18 06:29:02;;;;;;;48.17;32.55;;;7.10;99.90;;;;;;5052873;28;20044;-53
2022/11/18 06:31:28;;;;;;;53.35;34.05;;;7.10;99.90;;;;;;5052390;28;20628;-52
2022/11/18 06:33:53;;;;;;;44.20;30.85;;;7.10;99.90;;;;;;5047947;28;20066;-52
2022/11/18 06:36:19;;;;;;;46.25;30.65;;;7.10;99.90;;;;;;5036358;28;20044;-53
2022/11/18 06:38:44;;;;;;;40.92;30.08;;;7.10;99.90;;;;;;5053868;28;20123;-51
2022/11/18 06:41:10;;;;;;;44.50;29.48;;;7.10;99.90;;;;;;5054391;28;20111;-53
2022/11/18 06:43:40;;;;;;;40.90;28.70;;;7.10;99.90;;;;;;5052882;28;20052;-51
2022/11/18 06:48:58;;;;;;;39.97;26.55;;;7.10;99.90;;;;;;5033844;28;20041;-52
2022/11/18 06:51:24;;;;;;;41.85;27.50;;;7.10;99.90;;;;;;5049723;28;20437;-53
2022/11/18 06:53:50;;;;;;;43.25;30.20;;;7.10;99.90;;;;;;5051878;28;20037;-54
2022/11/18 06:56:17;;;;;;;42.95;27.30;;;7.10;99.90;;;;;;5053116;28;20063;-54
2022/11/18 06:58:43;;;;;;;43.60;28.95;;;7.10;99.90;;;;;;5034704;28;20092;-54
2022/11/18 07:01:20;;;;;;;43.67;29.25;;;7.10;99.90;;;;;;5052340;28;20115;-53
2022/11/18 07:03:46;;;;;;;45.47;31.40;;;7.10;99.90;;;;;;4938185;22;20458;-53
2022/11/18 07:06:15;;;;;;;39.55;24.38;;;7.10;99.90;;;;;;5071012;28;20136;-52
2022/11/18 07:08:41;;;;;;;37.90;26.52;;;7.00;99.90;;;;;;5072041;28;20068;-52
2022/11/18 07:11:09;;;;;;;40.00;26.98;;;7.10;99.90;;;;;;5071919;28;20041;-50
2022/11/18 07:13:35;;;;;;;41.60;27.52;;;7.10;99.90;;;;;;5066589;28;20504;-49
2022/11/18 07:16:13;;;;;;;43.03;28.52;;;7.00;99.90;;;;;;5071919;28;20454;-51
2022/11/18 07:18:40;;;;;;;45.58;28.55;;;7.10;99.90;;;;;;5072129;28;20139;-51
2022/11/18 07:21:15;;;;;;;37.08;26.70;;;7.00;99.90;;;;;;5069098;28;20116;-51
2022/11/18 07:23:40;;;;;;;40.75;27.42;;;7.00;99.90;;;;;;5071410;28;20394;-52
2022/11/18 07:26:06;;;;;;;40.28;27.00;;;7.00;99.90;;;;;;5071524;28;20048;-50
2022/11/18 07:28:33;;;;;;;41.00;27.40;;;7.00;99.90;;;;;;5071716;28;20064;-51
2022/11/18 07:31:02;;;;;;;40.03;26.35;;;7.10;99.90;;;;;;5069352;28;20033;-52
2022/11/18 07:33:29;;;;;;;41.97;25.73;;;7.10;99.90;;;;;;5070736;28;20446;-52
2022/11/18 07:35:55;;;;;;;36.30;24.92;;;7.10;99.90;;;;;;5069844;28;20098;-53
2022/11/18 07:38:20;;;;;;;36.75;26.20;;;7.10;99.90;;;;;;5068407;28;20032;-52
2022/11/18 07:40:46;;;;;;;46.55;30.98;;;7.00;99.90;;;;;;5071287;28;20226;-54
2022/11/18 07:43:12;;;;;;;31.13;22.05;;;7.00;99.90;;;;;;5071408;28;20057;-52
2022/11/18 07:45:37;;;;;;;35.45;23.23;;;7.00;99.90;;;;;;5053111;28;20040;-52
2022/11/18 07:48:04;;;;;;;35.58;24.27;;;7.00;99.90;;;;;;5055407;28;20097;-54
2022/11/18 07:50:29;;;;;;;40.30;24.67;;;7.00;99.90;;;;;;5070829;28;20052;-51
2022/11/18 07:52:56;;;;;;;33.08;21.95;;;7.10;99.90;;;;;;5071088;28;20033;-52
2022/11/18 07:55:22;;;;;;;33.60;23.25;;;7.00;99.90;;;;;;5069132;28;20146;-54
2022/11/18 07:57:47;;;;;;;32.97;23.40;;;7.00;99.90;;;;;;5073532;28;20032;-52
2022/11/18 08:00:13;;;;;;;30.80;21.35;;;7.00;99.90;;;;;;5072098;28;20047;-52
2022/11/18 08:02:39;;;;;;;28.08;21.60;;;7.00;99.90;;;;;;5071433;28;20053;-54
2022/11/18 08:05:05;;;;;;;36.70;23.85;;;7.00;99.90;;;;;;5070398;28;20051;-55
2022/11/18 08:07:31;;;;;;;30.45;22.30;;;7.00;99.90;;;;;;5072058;28;20036;-53
2022/11/18 08:09:56;;;;;;;28.55;22.13;;;6.90;99.90;;;;;;4505304;22;20075;-52
2022/11/18 08:12:22;;;;;;;29.92;22.40;;;7.00;99.90;;;;;;5066495;28;20091;-55
2022/11/18 08:14:48;;;;;;;29.65;21.40;;;7.00;99.90;;;;;;5072787;28;20143;-53
2022/11/18 08:17:13;;;;;;;29.50;20.83;;;7.00;99.90;;;;;;5069443;28;20486;-53
2022/11/18 08:19:39;;;;;;;29.75;21.15;;;7.00;99.90;;;;;;5071451;28;20124;-51
2022/11/18 08:22:04;;;;;;;28.15;20.17;;;7.00;99.90;;;;;;5069314;28;20079;-51
2022/11/18 08:24:30;;;;;;;29.95;19.65;;;7.00;99.90;;;;;;5069264;28;20048;-51
2022/11/18 08:26:55;;;;;;;33.35;22.13;;;7.00;99.90;;;;;;5063073;28;20135;-50
2022/11/18 08:29:21;;;;;;;30.83;20.70;;;;;;;;;;5068902;28;20119;-51
2022/11/18 08:31:47;;;;;;;29.50;21.60;;;7.00;99.90;;;;;;5065986;28;20041;-51
2022/11/18 08:34:14;;;;;;;29.67;22.17;;;7.10;99.90;;;;;;5064330;28;20055;-53
2022/11/18 08:36:39;;;;;;;31.55;21.15;;;7.10;99.90;;;;;;5062026;28;20081;-52
2022/11/18 08:39:07;;;;;;;31.48;22.08;;;7.10;99.90;;;;;;5065200;28;20039;-51
2022/11/18 08:41:39;;;;;;;30.30;21.23;;;7.10;99.90;;;;;;5053756;28;20047;-51
2022/11/18 08:44:06;;;;;;;26.63;19.80;;;7.00;99.90;;;;;;5067606;28;20048;-52
2022/11/18 08:46:32;;;;;;;30.63;21.35;;;7.00;99.90;;;;;;5052999;28;20509;-52
2022/11/18 08:48:58;;;;;;;25.27;20.38;;;7.00;99.90;;;;;;5062477;28;20055;-51
2022/11/18 08:51:24;;;;;;;29.10;22.20;;;7.10;99.90;;;;;;5066259;28;20124;-53
2022/11/18 08:53:50;;;;;;;29.77;22.70;;;7.10;99.90;;;;;;5064736;28;20040;-54
2022/11/18 08:56:18;;;;;;;29.42;22.17;;;7.00;99.90;;;;;;5056716;28;20101;-53
2022/11/18 08:58:44;;;;;;;31.92;22.77;;;7.10;99.90;;;;;;5054905;28;20067;-54
2022/11/18 09:01:10;;;;;;;27.00;19.63;;;7.10;99.90;;;;;;5058668;28;20078;-53
2022/11/18 09:03:36;;;;;;;26.70;20.48;;;7.00;99.90;;;;;;5057648;28;20166;-56
2022/11/18 09:06:10;;;;;;;35.30;23.52;;;7.00;99.90;;;;;;5057471;28;20124;-55
2022/11/18 09:08:36;;;;;;;29.58;21.60;;;7.10;99.90;;;;;;5059067;28;20048;-55
2022/11/18 09:11:10;;;;;;;25.95;19.67;;;7.10;99.90;;;;;;5061407;28;20048;-53
2022/11/18 09:13:36;;;;;;;27.83;20.90;;;7.10;99.90;;;;;;5064114;28;20036;-52
2022/11/18 09:16:02;;;;;;;27.52;21.65;;;7.10;99.90;;;;;;5058575;28;20402;-55
2022/11/18 09:18:28;;;;;;;25.55;21.15;;;7.00;99.90;;;;;;5058564;28;20102;-54
2022/11/18 09:20:59;;;;;;;23.30;18.38;;;7.10;99.90;;;;;;5062040;28;20470;-53
2022/11/18 09:23:26;;;;;;;27.10;19.65;;;7.00;99.90;;;;;;5062401;28;20492;-52
2022/11/18 09:26:10;;;;;;;26.38;21.02;;;7.10;99.90;;;;;;4848219;22;20719;-51
2022/11/18 09:28:35;;;;;;;28.05;21.77;;;7.10;99.90;;;;;;5081874;28;20123;-52
2022/11/18 09:31:06;;;;;;;29.95;23.15;;;;;;;;;;5090285;28;20047;-52
2022/11/18 09:33:33;;;;;;;32.08;24.30;;;7.10;99.90;;;;;;5091419;28;20056;-51
2022/11/18 09:35:58;;;;;;;29.77;23.58;;;7.10;99.90;;;;;;5089334;28;20047;-52
2022/11/18 09:38:24;;;;;;;33.47;25.73;;;7.10;99.90;;;;;;5086599;28;20040;-52
2022/11/18 09:41:05;;;;;;;32.70;24.92;;;7.10;99.90;;;;;;5086868;28;20501;-52
2022/11/18 09:43:53;;;;;;;32.55;24.73;;;7.20;99.90;;;;;;5083510;28;20093;-52
2022/11/18 09:46:39;;;;;;;35.47;25.13;;;7.20;99.90;;;;;;5027580;28;20053;-53
2022/11/18 09:49:15;;;;;;;31.40;22.73;;;7.20;99.90;;;;;;5028223;28;20442;-54
2022/11/18 09:51:49;;;;;;;30.48;23.45;;;7.20;99.90;;;;;;5029952;28;20503;-51
2022/11/18 09:54:22;;;;;;;27.75;20.17;;;7.20;99.90;;;;;;5028851;28;20099;-53
2022/11/18 09:56:50;;;;;;;28.90;22.58;;;7.20;99.90;;;;;;5006334;28;20092;-52
2022/11/18 09:59:18;;;;;;;27.17;21.63;;;7.20;99.90;;;;;;5009744;28;20041;-52
2022/11/18 10:01:44;;;;;;;31.95;20.45;;;7.20;99.90;;;;;;5010889;28;20396;-55
2022/11/18 10:04:18;;;;;;;30.50;22.88;;;7.10;99.90;;;;;;5009848;28;20060;-53
2022/11/18 10:06:45;;;;;;;27.33;22.02;;;7.20;99.90;;;;;;5007123;28;20046;-52
2022/11/18 10:09:38;;;;;;;23.45;18.45;;;7.20;99.90;;;;;;5007000;28;20056;-54
2022/11/18 10:12:33;;;;;;;31.33;22.95;;;7.20;99.90;;;;;;5005781;28;20491;-54
2022/11/18 10:15:18;;;;;;;31.20;23.80;;;7.20;99.90;;;;;;5004819;28;20061;-51
2022/11/18 10:17:52;;;;;;;26.52;20.98;;;7.20;99.90;;;;;;5006563;28;20407;-52
2022/11/18 10:20:23;;;;;;;24.92;20.25;;;7.20;99.90;;;;;;4981090;28;20109;-55
2022/11/18 10:23:02;;;;;;;25.95;19.83;;;7.20;99.90;;;;;;5023391;28;20068;-55
2022/11/18 10:25:30;;;;;;;21.85;18.42;;;7.10;99.90;;;;;;5066639;28;20053;-53
2022/11/18 10:28:12;;;;;;;25.85;20.77;;;7.10;99.90;;;;;;5048481;28;20047;-55
2022/11/18 10:30:38;;;;;;;24.77;19.83;;;7.10;99.90;;;;;;5071564;28;20044;-52
2022/11/18 10:33:20;;;;;;;23.92;18.50;;;7.10;99.90;;;;;;5072807;28;20098;-54
2022/11/18 10:35:50;;;;;;;18.63;13.73;;;7.10;99.90;;;;;;5069962;28;20048;-54
2022/11/18 10:38:18;;;;;;;22.90;18.75;;;7.00;99.90;;;;;;5070751;28;20068;-53
2022/11/18 10:41:01;;;;;;;21.17;16.90;;;7.00;99.90;;;;;;5051995;28;20032;-55
2022/11/18 10:43:48;;;;;;;23.38;18.23;;;7.00;99.90;;;;;;5063561;28;20111;-54
2022/11/18 10:46:33;;;;;;;20.73;17.08;;;7.10;99.90;;;;;;5063688;28;20040;-55
2022/11/18 10:49:08;;;;;;;19.50;15.32;;;7.00;99.90;;;;;;5068147;28;20052;-54
2022/11/18 10:51:39;;;;;;;15.82;14.13;;;7.00;99.90;;;;;;5068158;28;20076;-56
2022/11/18 10:54:21;;;;;;;15.27;12.77;;;7.00;99.90;;;;;;5039890;28;20045;-54
2022/11/18 10:57:03;;;;;;;16.40;14.65;;;7.00;99.90;;;;;;5062140;28;20131;-53
2022/11/18 10:59:51;;;;;;;17.50;14.75;;;7.00;99.90;;;;;;5066324;28;20135;-51
2022/11/18 11:02:29;;;;;;;17.85;14.55;;;7.00;99.90;;;;;;5048364;28;20040;-51
2022/11/18 11:04:57;;;;;;;16.30;13.43;;;7.00;99.90;;;;;;5066363;28;20040;-55
2022/11/18 11:07:24;;;;;;;18.00;14.57;;;7.00;99.90;;;;;;5065308;28;20051;-57
2022/11/18 11:10:05;;;;;;;21.52;17.42;;;6.90;99.90;;;;;;5073055;28;20087;-57
2022/11/18 11:12:36;;;;;;;20.83;16.50;;;6.90;99.90;;;;;;5068942;28;20043;-56
2022/11/18 11:15:08;;;;;;;20.25;16.00;;;6.90;99.90;;;;;;5062252;28;20485;-56
2022/11/18 11:17:44;;;;;;;20.88;16.20;;;6.90;99.90;;;;;;5067603;28;20041;-53
2022/11/18 11:20:25;;;;;;;16.98;13.43;;;6.90;99.90;;;;;;5068323;28;20501;-55
2022/11/18 11:22:53;;;;;;;23.15;16.58;;;6.90;99.90;;;;;;5069504;28;20055;-56
2022/11/18 11:25:43;;;;;;;17.55;15.10;;;7.00;99.90;;;;;;5069210;28;20505;-55
2022/11/18 11:28:42;;;;;;;17.77;15.07;;;7.00;99.90;;;;;;5046160;28;20079;-55
2022/11/18 11:31:22;;;;;;;15.15;12.57;;;7.10;99.90;;;;;;5058630;28;20056;-53
2022/11/18 11:33:54;;;;;;;13.25;11.65;;;7.10;99.90;;;;;;5068149;28;20071;-57
2022/11/18 11:36:45;;;;;;;14.75;12.68;;;7.10;99.90;;;;;;5067972;28;20044;-56
2022/11/18 11:39:35;;;;;;;14.30;12.00;;;7.10;99.90;;;;;;5065558;28;20184;-55
2022/11/18 11:42:09;;;;;;;13.65;11.82;;;7.10;99.90;;;;;;5061520;28;20482;-55
2022/11/18 11:45:03;;;;;;;13.48;11.55;;;6.90;99.90;;;;;;5066291;28;20052;-56
2022/11/18 11:47:48;;;;;;;12.57;10.43;;;6.90;99.90;;;;;;5015816;28;20056;-54
2022/11/18 11:50:29;;;;;;;13.40;10.90;;;6.90;99.90;;;;;;5049944;28;20056;-56
2022/11/18 11:53:07;;;;;;;12.27;10.18;;;6.80;99.90;;;;;;5062752;28;20040;-52
2022/11/18 11:56:30;;;;;;;10.25;8.85;;;6.80;99.90;;;;;;5058646;28;20448;-52
2022/11/18 11:59:16;;;;;;;13.07;9.75;;;6.80;99.90;;;;;;4960450;28;20506;-53
2022/11/18 12:02:19;;;;;;;12.43;9.98;;;6.70;99.90;;;;;;4968962;28;20070;-54
2022/11/18 12:05:46;;;;;;;12.60;9.75;;;6.70;99.90;;;;;;4969847;28;20429;-54
2022/11/18 12:08:22;;;;;;;10.70;8.57;;;6.60;99.90;;;;;;4931635;29;20044;-56
2022/11/18 12:11:07;;;;;;;9.40;8.25;;;6.60;99.90;;;;;;4913306;29;20047;-55
2022/11/18 12:13:51;;;;;;;13.25;10.02;;;6.70;99.90;;;;;;4920151;29;20047;-52
2022/11/18 12:16:44;;;;;;;8.82;7.18;;;6.70;99.90;;;;;;4923959;29;20471;-53
2022/11/18 12:19:13;;;;;;;10.05;8.15;;;6.70;99.90;;;;;;4922879;29;20454;-55
2022/11/18 12:21:44;;;;;;;11.63;9.38;;;6.70;99.90;;;;;;4921111;29;20458;-52
2022/11/18 12:24:16;;;;;;;11.45;9.80;;;6.90;99.90;;;;;;4903687;29;20078;-54
2022/11/18 12:26:42;;;;;;;12.27;10.15;;;6.90;99.90;;;;;;4918153;29;20052;-52
2022/11/18 12:29:20;;;;;;;10.65;9.35;;;6.90;99.90;;;;;;4902586;29;20060;-55
2022/11/18 12:31:45;;;;;;;14.73;10.48;;;6.80;99.90;;;;;;4920016;28;20457;-52
2022/11/18 12:34:33;;;;;;;15.38;11.70;;;6.80;99.90;;;;;;5017346;28;20045;-56
2022/11/18 12:37:24;;;;;;;30.15;23.90;;;6.80;99.90;;;;;;5014999;28;20045;-53
2022/11/18 12:39:55;;;;;;;21.83;14.55;;;6.70;99.90;;;;;;5015051;28;20517;-55
2022/11/18 12:45:37;;;;;;;;;;;6.60;99.90;;;;;;5045625;28;20127;-54
2022/11/18 12:48:03;;;;;;;13.50;10.30;;;6.70;99.90;;;;;;5064197;28;20320;-53
2022/11/18 12:50:49;;;;;;;11.75;9.27;;;6.70;99.90;;;;;;5065346;28;20040;-52
2022/11/18 12:53:43;;;;;;;14.20;10.50;;;6.60;99.90;;;;;;5063804;28;20055;-56
2022/11/18 12:56:18;;;;;;;15.93;10.52;;;6.50;99.90;;;;;;5070230;28;20076;-51
2022/11/18 12:58:55;;;;;;;13.13;9.10;;;6.50;99.90;;;;;;5062311;28;20194;-55
2022/11/18 13:01:26;;;;;;;17.80;11.38;;;6.40;99.90;;;;;;5044810;28;20103;-56
2022/11/18 13:04:04;;;;;;;14.75;11.25;;;6.30;99.90;;;;;;5056936;28;20580;-53
2022/11/18 13:06:31;;;;;;;13.38;9.75;;;6.20;99.90;;;;;;5061603;28;20063;-52
2022/11/18 13:09:03;;;;;;;12.98;9.82;;;6.20;99.90;;;;;;5055819;28;20068;-53
2022/11/18 13:11:49;;;;;;;12.43;10.45;;;6.20;99.90;;;;;;5061475;28;20409;-52
2022/11/18 13:17:50;;;;;;;11.40;8.73;;;6.10;99.90;;;;;;5064874;28;20503;-55
2022/11/18 13:20:22;;;;;;;12.82;10.05;;;6.10;99.90;;;;;;5062425;28;20394;-54
2022/11/18 13:25:45;;;;;;;12.52;9.43;;;6.10;99.90;;;;;;5067157;28;20059;-51
2022/11/18 13:28:48;;;;;;;10.23;8.65;;;6.00;99.90;;;;;;5066081;28;20497;-51
2022/11/18 13:31:23;;;;;;;12.30;9.18;;;;;;;;;;5067394;28;20037;-55